sensor_id;sensor_type;location;lat;lon;timestamp;P1;durP1;ratioP1;P2;durP2;ratioP2
76631;SDS011;65526;48.578;-4.520;2023-06-14T00:01:49;73.50;;;7.93;;
76631;SDS011;65526;48.578;-4.520;2023-06-14T00:04:15;41.55;;;6.15;;
76631;SDS011;65526;48.578;-4.520;2023-06-14T00:06:43;65.18;;;7.00;;
76631;SDS011;65526;48.578;-4.520;2023-06-14T00:09:14;40.05;;;7.32;;
76631;SDS011;65526;48.578;-4.520;2023-06-14T00:11:43;37.97;;;6.63;;
76631;SDS011;65526;48.578;-4.520;2023-06-14T00:14:10;29.60;;;6.75;;
76631;SDS011;65526;48.578;-4.520;2023-06-14T00:16:37;36.20;;;6.53;;
76631;SDS011;65526;48.578;-4.520;2023-06-14T00:19:04;21.13;;;6.00;;
76631;SDS011;65526;48.578;-4.520;2023-06-14T00:21:31;25.67;;;6.43;;
76631;SDS011;65526;48.578;-4.520;2023-06-14T00:23:58;22.13;;;6.03;;
76631;SDS011;65526;48.578;-4.520;2023-06-14T00:26:25;44.25;;;5.95;;
76631;SDS011;65526;48.578;-4.520;2023-06-14T00:28:56;60.67;;;6.60;;
76631;SDS011;65526;48.578;-4.520;2023-06-14T00:31:22;29.08;;;6.22;;
76631;SDS011;65526;48.578;-4.520;2023-06-14T00:33:49;54.05;;;6.95;;
76631;SDS011;65526;48.578;-4.520;2023-06-14T00:36:15;19.88;;;6.57;;
76631;SDS011;65526;48.578;-4.520;2023-06-14T00:38:42;22.10;;;5.65;;
76631;SDS011;65526;48.578;-4.520;2023-06-14T00:41:09;23.13;;;5.65;;
76631;SDS011;65526;48.578;-4.520;2023-06-14T00:43:35;45.60;;;5.85;;
76631;SDS011;65526;48.578;-4.520;2023-06-14T00:46:01;36.95;;;5.72;;
76631;SDS011;65526;48.578;-4.520;2023-06-14T00:48:29;24.90;;;5.90;;
76631;SDS011;65526;48.578;-4.520;2023-06-14T00:50:57;31.90;;;5.95;;
76631;SDS011;65526;48.578;-4.520;2023-06-14T00:53:24;24.80;;;6.43;;
76631;SDS011;65526;48.578;-4.520;2023-06-14T00:55:51;24.70;;;6.38;;
76631;SDS011;65526;48.578;-4.520;2023-06-14T00:58:17;41.25;;;6.68;;
76631;SDS011;65526;48.578;-4.520;2023-06-14T01:00:44;24.67;;;6.28;;
76631;SDS011;65526;48.578;-4.520;2023-06-14T01:03:11;22.25;;;5.97;;
76631;SDS011;65526;48.578;-4.520;2023-06-14T01:05:38;34.85;;;6.00;;
76631;SDS011;65526;48.578;-4.520;2023-06-14T01:08:14;27.42;;;6.82;;
76631;SDS011;65526;48.578;-4.520;2023-06-14T01:11:16;36.30;;;6.40;;
76631;SDS011;65526;48.578;-4.520;2023-06-14T01:13:52;27.83;;;5.82;;
76631;SDS011;65526;48.578;-4.520;2023-06-14T01:16:21;33.15;;;5.63;;
76631;SDS011;65526;48.578;-4.520;2023-06-14T01:18:48;27.27;;;5.63;;
76631;SDS011;65526;48.578;-4.520;2023-06-14T01:21:22;27.85;;;5.75;;
76631;SDS011;65526;48.578;-4.520;2023-06-14T01:23:50;32.85;;;6.03;;
76631;SDS011;65526;48.578;-4.520;2023-06-14T01:26:24;47.30;;;5.82;;
76631;SDS011;65526;48.578;-4.520;2023-06-14T01:28:52;57.10;;;7.05;;
76631;SDS011;65526;48.578;-4.520;2023-06-14T01:31:22;42.67;;;6.15;;
76631;SDS011;65526;48.578;-4.520;2023-06-14T01:33:50;18.52;;;5.38;;
76631;SDS011;65526;48.578;-4.520;2023-06-14T01:36:18;38.20;;;6.55;;
76631;SDS011;65526;48.578;-4.520;2023-06-14T01:38:46;58.60;;;7.28;;
76631;SDS011;65526;48.578;-4.520;2023-06-14T01:41:16;22.67;;;6.05;;
76631;SDS011;65526;48.578;-4.520;2023-06-14T01:43:44;31.55;;;6.47;;
76631;SDS011;65526;48.578;-4.520;2023-06-14T01:46:12;39.22;;;7.18;;
76631;SDS011;65526;48.578;-4.520;2023-06-14T01:48:40;23.75;;;6.03;;
76631;SDS011;65526;48.578;-4.520;2023-06-14T01:51:09;45.08;;;6.10;;
76631;SDS011;65526;48.578;-4.520;2023-06-14T01:53:35;25.77;;;6.30;;
76631;SDS011;65526;48.578;-4.520;2023-06-14T01:56:02;33.58;;;6.22;;
76631;SDS011;65526;48.578;-4.520;2023-06-14T01:58:30;34.78;;;6.32;;
76631;SDS011;65526;48.578;-4.520;2023-06-14T02:00:58;23.88;;;6.32;;
76631;SDS011;65526;48.578;-4.520;2023-06-14T02:03:27;26.83;;;6.32;;
76631;SDS011;65526;48.578;-4.520;2023-06-14T02:05:54;28.55;;;6.68;;
76631;SDS011;65526;48.578;-4.520;2023-06-14T02:08:21;30.23;;;6.15;;
76631;SDS011;65526;48.578;-4.520;2023-06-14T02:10:49;17.90;;;5.72;;
76631;SDS011;65526;48.578;-4.520;2023-06-14T02:13:15;18.38;;;5.03;;
76631;SDS011;65526;48.578;-4.520;2023-06-14T02:15:41;24.67;;;6.00;;
76631;SDS011;65526;48.578;-4.520;2023-06-14T02:18:09;13.77;;;5.47;;
76631;SDS011;65526;48.578;-4.520;2023-06-14T02:20:37;15.65;;;5.03;;
76631;SDS011;65526;48.578;-4.520;2023-06-14T02:23:03;13.43;;;4.40;;
76631;SDS011;65526;48.578;-4.520;2023-06-14T02:25:31;13.95;;;5.57;;
76631;SDS011;65526;48.578;-4.520;2023-06-14T02:27:58;21.00;;;5.80;;
76631;SDS011;65526;48.578;-4.520;2023-06-14T02:30:24;16.13;;;5.97;;
76631;SDS011;65526;48.578;-4.520;2023-06-14T02:32:51;15.63;;;5.32;;
76631;SDS011;65526;48.578;-4.520;2023-06-14T02:35:18;13.57;;;5.40;;
76631;SDS011;65526;48.578;-4.520;2023-06-14T02:37:46;13.73;;;5.32;;
76631;SDS011;65526;48.578;-4.520;2023-06-14T02:40:13;21.02;;;5.38;;
76631;SDS011;65526;48.578;-4.520;2023-06-14T02:42:40;12.80;;;4.80;;
76631;SDS011;65526;48.578;-4.520;2023-06-14T02:45:07;15.48;;;5.47;;
76631;SDS011;65526;48.578;-4.520;2023-06-14T02:47:34;12.70;;;5.20;;
76631;SDS011;65526;48.578;-4.520;2023-06-14T02:50:00;16.45;;;4.93;;
76631;SDS011;65526;48.578;-4.520;2023-06-14T02:52:28;16.98;;;6.05;;
76631;SDS011;65526;48.578;-4.520;2023-06-14T02:54:54;14.80;;;5.35;;
76631;SDS011;65526;48.578;-4.520;2023-06-14T02:57:21;20.45;;;5.53;;
76631;SDS011;65526;48.578;-4.520;2023-06-14T02:59:49;20.67;;;5.03;;
76631;SDS011;65526;48.578;-4.520;2023-06-14T03:02:16;15.45;;;6.03;;
76631;SDS011;65526;48.578;-4.520;2023-06-14T03:04:43;18.00;;;5.78;;
76631;SDS011;65526;48.578;-4.520;2023-06-14T03:07:15;14.52;;;5.30;;
76631;SDS011;65526;48.578;-4.520;2023-06-14T03:09:46;16.23;;;5.55;;
76631;SDS011;65526;48.578;-4.520;2023-06-14T03:14:41;13.38;;;5.50;;
76631;SDS011;65526;48.578;-4.520;2023-06-14T03:17:09;14.82;;;5.22;;
76631;SDS011;65526;48.578;-4.520;2023-06-14T03:19:39;13.90;;;5.43;;
76631;SDS011;65526;48.578;-4.520;2023-06-14T03:22:07;15.40;;;5.50;;
76631;SDS011;65526;48.578;-4.520;2023-06-14T03:24:35;16.15;;;6.03;;
76631;SDS011;65526;48.578;-4.520;2023-06-14T03:27:08;19.70;;;5.00;;
76631;SDS011;65526;48.578;-4.520;2023-06-14T03:29:37;13.77;;;5.60;;
76631;SDS011;65526;48.578;-4.520;2023-06-14T03:32:04;14.13;;;5.38;;
76631;SDS011;65526;48.578;-4.520;2023-06-14T03:37:10;14.50;;;5.43;;
76631;SDS011;65526;48.578;-4.520;2023-06-14T03:39:36;16.45;;;5.40;;
76631;SDS011;65526;48.578;-4.520;2023-06-14T03:42:03;17.08;;;6.10;;
76631;SDS011;65526;48.578;-4.520;2023-06-14T03:44:31;13.77;;;5.63;;
76631;SDS011;65526;48.578;-4.520;2023-06-14T03:46:58;16.75;;;5.75;;
76631;SDS011;65526;48.578;-4.520;2023-06-14T03:49:26;14.93;;;6.03;;
76631;SDS011;65526;48.578;-4.520;2023-06-14T03:51:52;15.05;;;5.60;;
76631;SDS011;65526;48.578;-4.520;2023-06-14T03:54:22;13.88;;;5.32;;
76631;SDS011;65526;48.578;-4.520;2023-06-14T03:56:51;16.05;;;5.78;;
76631;SDS011;65526;48.578;-4.520;2023-06-14T03:59:17;13.77;;;5.82;;
76631;SDS011;65526;48.578;-4.520;2023-06-14T04:01:44;11.20;;;5.25;;
76631;SDS011;65526;48.578;-4.520;2023-06-14T04:04:14;15.05;;;4.88;;
76631;SDS011;65526;48.578;-4.520;2023-06-14T04:06:43;11.88;;;5.00;;
76631;SDS011;65526;48.578;-4.520;2023-06-14T04:09:10;13.93;;;4.85;;
76631;SDS011;65526;48.578;-4.520;2023-06-14T04:11:37;14.95;;;5.28;;
76631;SDS011;65526;48.578;-4.520;2023-06-14T04:14:03;14.10;;;5.88;;
76631;SDS011;65526;48.578;-4.520;2023-06-14T04:16:30;13.82;;;4.30;;
76631;SDS011;65526;48.578;-4.520;2023-06-14T04:18:56;13.63;;;5.28;;
76631;SDS011;65526;48.578;-4.520;2023-06-14T04:21:24;12.75;;;4.82;;
76631;SDS011;65526;48.578;-4.520;2023-06-14T04:23:53;15.18;;;5.03;;
76631;SDS011;65526;48.578;-4.520;2023-06-14T04:26:22;12.27;;;4.55;;
76631;SDS011;65526;48.578;-4.520;2023-06-14T04:28:56;13.07;;;4.95;;
76631;SDS011;65526;48.578;-4.520;2023-06-14T04:31:29;10.70;;;4.65;;
76631;SDS011;65526;48.578;-4.520;2023-06-14T04:34:00;13.20;;;4.80;;
76631;SDS011;65526;48.578;-4.520;2023-06-14T04:36:27;14.60;;;6.22;;
76631;SDS011;65526;48.578;-4.520;2023-06-14T04:38:54;12.35;;;5.53;;
76631;SDS011;65526;48.578;-4.520;2023-06-14T04:41:23;12.20;;;5.75;;
76631;SDS011;65526;48.578;-4.520;2023-06-14T04:43:59;16.15;;;5.97;;
76631;SDS011;65526;48.578;-4.520;2023-06-14T04:46:30;15.57;;;6.28;;
76631;SDS011;65526;48.578;-4.520;2023-06-14T04:49:15;14.60;;;5.75;;
76631;SDS011;65526;48.578;-4.520;2023-06-14T04:51:43;13.10;;;5.57;;
76631;SDS011;65526;48.578;-4.520;2023-06-14T04:54:10;11.48;;;5.43;;
76631;SDS011;65526;48.578;-4.520;2023-06-14T04:56:40;13.00;;;5.28;;
76631;SDS011;65526;48.578;-4.520;2023-06-14T04:59:12;16.85;;;6.22;;
76631;SDS011;65526;48.578;-4.520;2023-06-14T05:01:41;12.63;;;5.78;;
76631;SDS011;65526;48.578;-4.520;2023-06-14T05:04:08;16.45;;;5.93;;
76631;SDS011;65526;48.578;-4.520;2023-06-14T05:06:34;12.23;;;5.82;;
76631;SDS011;65526;48.578;-4.520;2023-06-14T05:09:02;12.93;;;5.63;;
76631;SDS011;65526;48.578;-4.520;2023-06-14T05:11:28;12.63;;;5.50;;
76631;SDS011;65526;48.578;-4.520;2023-06-14T05:13:55;11.07;;;5.30;;
76631;SDS011;65526;48.578;-4.520;2023-06-14T05:16:24;12.77;;;5.00;;
76631;SDS011;65526;48.578;-4.520;2023-06-14T05:18:51;25.38;;;5.22;;
76631;SDS011;65526;48.578;-4.520;2023-06-14T05:21:17;11.70;;;4.80;;
76631;SDS011;65526;48.578;-4.520;2023-06-14T05:23:44;14.35;;;5.45;;
76631;SDS011;65526;48.578;-4.520;2023-06-14T05:26:11;10.77;;;4.78;;
76631;SDS011;65526;48.578;-4.520;2023-06-14T05:28:37;8.80;;;4.45;;
76631;SDS011;65526;48.578;-4.520;2023-06-14T05:31:04;12.10;;;4.95;;
76631;SDS011;65526;48.578;-4.520;2023-06-14T05:33:30;11.73;;;4.85;;
76631;SDS011;65526;48.578;-4.520;2023-06-14T05:35:57;12.98;;;4.85;;
76631;SDS011;65526;48.578;-4.520;2023-06-14T05:38:23;9.02;;;4.45;;
76631;SDS011;65526;48.578;-4.520;2023-06-14T05:40:49;9.43;;;4.05;;
76631;SDS011;65526;48.578;-4.520;2023-06-14T05:43:16;11.95;;;5.10;;
76631;SDS011;65526;48.578;-4.520;2023-06-14T05:45:42;11.68;;;4.60;;
76631;SDS011;65526;48.578;-4.520;2023-06-14T05:48:09;8.57;;;4.50;;
76631;SDS011;65526;48.578;-4.520;2023-06-14T05:50:35;10.02;;;4.70;;
76631;SDS011;65526;48.578;-4.520;2023-06-14T05:53:02;13.52;;;4.97;;
76631;SDS011;65526;48.578;-4.520;2023-06-14T05:55:28;9.75;;;4.60;;
76631;SDS011;65526;48.578;-4.520;2023-06-14T05:57:54;11.15;;;4.90;;
76631;SDS011;65526;48.578;-4.520;2023-06-14T06:00:21;11.20;;;5.50;;
76631;SDS011;65526;48.578;-4.520;2023-06-14T06:02:47;11.27;;;4.75;;
76631;SDS011;65526;48.578;-4.520;2023-06-14T06:05:14;8.95;;;4.75;;
76631;SDS011;65526;48.578;-4.520;2023-06-14T06:07:43;13.65;;;5.07;;
76631;SDS011;65526;48.578;-4.520;2023-06-14T06:10:12;16.98;;;5.80;;
76631;SDS011;65526;48.578;-4.520;2023-06-14T06:12:40;15.45;;;5.43;;
76631;SDS011;65526;48.578;-4.520;2023-06-14T06:15:07;18.70;;;6.25;;
76631;SDS011;65526;48.578;-4.520;2023-06-14T06:17:38;20.88;;;6.78;;
76631;SDS011;65526;48.578;-4.520;2023-06-14T06:20:05;17.58;;;6.22;;
76631;SDS011;65526;48.578;-4.520;2023-06-14T06:22:34;17.60;;;6.90;;
76631;SDS011;65526;48.578;-4.520;2023-06-14T06:25:00;15.40;;;5.38;;
76631;SDS011;65526;48.578;-4.520;2023-06-14T06:27:27;13.38;;;5.70;;
76631;SDS011;65526;48.578;-4.520;2023-06-14T06:29:53;17.25;;;6.00;;
76631;SDS011;65526;48.578;-4.520;2023-06-14T06:32:20;19.80;;;6.35;;
76631;SDS011;65526;48.578;-4.520;2023-06-14T06:34:46;18.67;;;6.40;;
76631;SDS011;65526;48.578;-4.520;2023-06-14T06:37:13;17.85;;;5.80;;
76631;SDS011;65526;48.578;-4.520;2023-06-14T06:39:40;16.15;;;6.28;;
76631;SDS011;65526;48.578;-4.520;2023-06-14T06:42:06;19.27;;;6.80;;
76631;SDS011;65526;48.578;-4.520;2023-06-14T06:44:36;16.38;;;6.85;;
76631;SDS011;65526;48.578;-4.520;2023-06-14T06:47:03;21.23;;;7.53;;
76631;SDS011;65526;48.578;-4.520;2023-06-14T06:49:29;21.38;;;7.38;;
76631;SDS011;65526;48.578;-4.520;2023-06-14T06:52:03;19.70;;;7.43;;
76631;SDS011;65526;48.578;-4.520;2023-06-14T06:54:31;21.42;;;7.25;;
76631;SDS011;65526;48.578;-4.520;2023-06-14T06:56:58;17.63;;;7.20;;
76631;SDS011;65526;48.578;-4.520;2023-06-14T06:59:24;17.48;;;6.45;;
76631;SDS011;65526;48.578;-4.520;2023-06-14T07:01:51;28.42;;;6.72;;
76631;SDS011;65526;48.578;-4.520;2023-06-14T07:04:17;23.08;;;7.50;;
76631;SDS011;65526;48.578;-4.520;2023-06-14T07:06:46;23.55;;;7.57;;
76631;SDS011;65526;48.578;-4.520;2023-06-14T07:09:13;21.38;;;7.53;;
76631;SDS011;65526;48.578;-4.520;2023-06-14T07:11:40;19.73;;;7.22;;
76631;SDS011;65526;48.578;-4.520;2023-06-14T07:14:10;24.27;;;8.13;;
76631;SDS011;65526;48.578;-4.520;2023-06-14T07:16:37;21.17;;;6.45;;
76631;SDS011;65526;48.578;-4.520;2023-06-14T07:19:03;22.35;;;6.97;;
76631;SDS011;65526;48.578;-4.520;2023-06-14T07:21:30;27.48;;;8.48;;
76631;SDS011;65526;48.578;-4.520;2023-06-14T07:23:56;19.20;;;7.35;;
76631;SDS011;65526;48.578;-4.520;2023-06-14T07:26:23;20.73;;;8.05;;
76631;SDS011;65526;48.578;-4.520;2023-06-14T07:28:49;19.88;;;6.63;;
76631;SDS011;65526;48.578;-4.520;2023-06-14T07:31:16;23.13;;;8.60;;
76631;SDS011;65526;48.578;-4.520;2023-06-14T07:33:44;20.20;;;6.97;;
76631;SDS011;65526;48.578;-4.520;2023-06-14T07:36:10;22.27;;;8.38;;
76631;SDS011;65526;48.578;-4.520;2023-06-14T07:38:37;18.27;;;7.00;;
76631;SDS011;65526;48.578;-4.520;2023-06-14T07:41:03;22.08;;;9.32;;
76631;SDS011;65526;48.578;-4.520;2023-06-14T07:43:30;23.67;;;7.60;;
76631;SDS011;65526;48.578;-4.520;2023-06-14T07:45:56;26.77;;;8.50;;
76631;SDS011;65526;48.578;-4.520;2023-06-14T07:48:23;26.05;;;8.65;;
76631;SDS011;65526;48.578;-4.520;2023-06-14T07:50:49;21.10;;;7.90;;
76631;SDS011;65526;48.578;-4.520;2023-06-14T07:53:16;23.90;;;8.68;;
76631;SDS011;65526;48.578;-4.520;2023-06-14T07:55:42;20.80;;;8.10;;
76631;SDS011;65526;48.578;-4.520;2023-06-14T07:58:09;21.73;;;7.85;;
76631;SDS011;65526;48.578;-4.520;2023-06-14T08:00:36;24.10;;;9.27;;
76631;SDS011;65526;48.578;-4.520;2023-06-14T08:03:03;20.88;;;8.30;;
76631;SDS011;65526;48.578;-4.520;2023-06-14T08:05:30;21.50;;;7.82;;
76631;SDS011;65526;48.578;-4.520;2023-06-14T08:07:56;18.13;;;7.50;;
76631;SDS011;65526;48.578;-4.520;2023-06-14T08:10:22;20.63;;;8.02;;
76631;SDS011;65526;48.578;-4.520;2023-06-14T08:12:49;22.52;;;8.73;;
76631;SDS011;65526;48.578;-4.520;2023-06-14T08:15:18;18.98;;;7.28;;
76631;SDS011;65526;48.578;-4.520;2023-06-14T08:17:45;19.27;;;8.10;;
76631;SDS011;65526;48.578;-4.520;2023-06-14T08:20:12;20.95;;;7.57;;
76631;SDS011;65526;48.578;-4.520;2023-06-14T08:22:39;17.95;;;7.53;;
76631;SDS011;65526;48.578;-4.520;2023-06-14T08:25:08;17.65;;;7.22;;
76631;SDS011;65526;48.578;-4.520;2023-06-14T08:27:35;17.33;;;7.82;;
76631;SDS011;65526;48.578;-4.520;2023-06-14T08:30:01;19.55;;;7.60;;
76631;SDS011;65526;48.578;-4.520;2023-06-14T08:32:29;16.92;;;7.97;;
76631;SDS011;65526;48.578;-4.520;2023-06-14T08:34:55;18.95;;;7.75;;
76631;SDS011;65526;48.578;-4.520;2023-06-14T08:37:21;20.73;;;8.70;;
76631;SDS011;65526;48.578;-4.520;2023-06-14T08:39:48;20.27;;;8.50;;
76631;SDS011;65526;48.578;-4.520;2023-06-14T08:42:14;18.10;;;8.27;;
76631;SDS011;65526;48.578;-4.520;2023-06-14T08:44:44;20.65;;;8.15;;
76631;SDS011;65526;48.578;-4.520;2023-06-14T08:47:11;18.33;;;8.00;;
76631;SDS011;65526;48.578;-4.520;2023-06-14T08:49:38;18.98;;;8.30;;
76631;SDS011;65526;48.578;-4.520;2023-06-14T08:52:11;19.63;;;8.23;;
76631;SDS011;65526;48.578;-4.520;2023-06-14T08:54:38;21.25;;;9.23;;
76631;SDS011;65526;48.578;-4.520;2023-06-14T08:57:13;19.83;;;8.43;;
76631;SDS011;65526;48.578;-4.520;2023-06-14T08:59:44;17.67;;;8.20;;
76631;SDS011;65526;48.578;-4.520;2023-06-14T09:02:12;19.52;;;9.35;;
76631;SDS011;65526;48.578;-4.520;2023-06-14T09:04:40;19.10;;;8.35;;
76631;SDS011;65526;48.578;-4.520;2023-06-14T09:07:07;23.60;;;10.50;;
76631;SDS011;65526;48.578;-4.520;2023-06-14T09:09:38;22.00;;;9.35;;
76631;SDS011;65526;48.578;-4.520;2023-06-14T09:12:07;17.67;;;8.82;;
76631;SDS011;65526;48.578;-4.520;2023-06-14T09:14:36;20.10;;;9.77;;
76631;SDS011;65526;48.578;-4.520;2023-06-14T09:17:05;23.60;;;9.27;;
76631;SDS011;65526;48.578;-4.520;2023-06-14T09:19:32;24.00;;;9.88;;
76631;SDS011;65526;48.578;-4.520;2023-06-14T09:21:59;20.98;;;10.55;;
76631;SDS011;65526;48.578;-4.520;2023-06-14T09:24:26;20.95;;;9.82;;
76631;SDS011;65526;48.578;-4.520;2023-06-14T09:26:53;24.15;;;11.05;;
76631;SDS011;65526;48.578;-4.520;2023-06-14T09:29:19;21.80;;;9.85;;
76631;SDS011;65526;48.578;-4.520;2023-06-14T09:31:46;24.45;;;10.65;;
76631;SDS011;65526;48.578;-4.520;2023-06-14T09:34:13;25.52;;;11.40;;
76631;SDS011;65526;48.578;-4.520;2023-06-14T09:36:39;20.60;;;10.32;;
76631;SDS011;65526;48.578;-4.520;2023-06-14T09:39:08;21.20;;;9.82;;
76631;SDS011;65526;48.578;-4.520;2023-06-14T09:44:06;27.27;;;10.15;;
76631;SDS011;65526;48.578;-4.520;2023-06-14T09:46:34;23.10;;;9.55;;
76631;SDS011;65526;48.578;-4.520;2023-06-14T09:49:03;28.02;;;10.77;;
76631;SDS011;65526;48.578;-4.520;2023-06-14T09:51:31;30.00;;;12.00;;
76631;SDS011;65526;48.578;-4.520;2023-06-14T09:54:01;25.50;;;12.38;;
76631;SDS011;65526;48.578;-4.520;2023-06-14T09:56:32;24.77;;;11.02;;
76631;SDS011;65526;48.578;-4.520;2023-06-14T09:59:04;31.05;;;12.38;;
76631;SDS011;65526;48.578;-4.520;2023-06-14T10:01:33;22.85;;;11.40;;
76631;SDS011;65526;48.578;-4.520;2023-06-14T10:04:03;25.45;;;10.73;;
76631;SDS011;65526;48.578;-4.520;2023-06-14T10:06:31;25.35;;;12.02;;
76631;SDS011;65526;48.578;-4.520;2023-06-14T10:08:58;26.77;;;11.18;;
76631;SDS011;65526;48.578;-4.520;2023-06-14T10:11:26;26.27;;;11.73;;
76631;SDS011;65526;48.578;-4.520;2023-06-14T10:13:54;26.98;;;11.25;;
76631;SDS011;65526;48.578;-4.520;2023-06-14T10:16:28;31.15;;;12.10;;
76631;SDS011;65526;48.578;-4.520;2023-06-14T10:19:04;24.95;;;10.52;;
76631;SDS011;65526;48.578;-4.520;2023-06-14T10:24:07;22.88;;;10.25;;
76631;SDS011;65526;48.578;-4.520;2023-06-14T10:26:40;27.30;;;10.75;;
76631;SDS011;65526;48.578;-4.520;2023-06-14T10:29:20;21.95;;;10.23;;
76631;SDS011;65526;48.578;-4.520;2023-06-14T10:31:48;24.15;;;9.82;;
76631;SDS011;65526;48.578;-4.520;2023-06-14T10:34:25;23.75;;;9.85;;
76631;SDS011;65526;48.578;-4.520;2023-06-14T10:37:05;21.92;;;10.35;;
76631;SDS011;65526;48.578;-4.520;2023-06-14T10:39:40;26.80;;;11.95;;
76631;SDS011;65526;48.578;-4.520;2023-06-14T10:42:07;26.70;;;11.65;;
76631;SDS011;65526;48.578;-4.520;2023-06-14T10:47:06;35.53;;;13.05;;
76631;SDS011;65526;48.578;-4.520;2023-06-14T10:49:44;31.15;;;14.45;;
76631;SDS011;65526;48.578;-4.520;2023-06-14T10:52:15;31.60;;;13.45;;
76631;SDS011;65526;48.578;-4.520;2023-06-14T10:57:35;25.95;;;11.55;;
76631;SDS011;65526;48.578;-4.520;2023-06-14T11:00:03;23.55;;;11.07;;
76631;SDS011;65526;48.578;-4.520;2023-06-14T11:05:20;21.23;;;9.60;;
76631;SDS011;65526;48.578;-4.520;2023-06-14T11:10:44;29.45;;;10.98;;
76631;SDS011;65526;48.578;-4.520;2023-06-14T11:13:15;28.52;;;11.68;;
76631;SDS011;65526;48.578;-4.520;2023-06-14T11:15:47;23.05;;;10.68;;
76631;SDS011;65526;48.578;-4.520;2023-06-14T11:18:14;24.92;;;11.15;;
76631;SDS011;65526;48.578;-4.520;2023-06-14T11:20:42;26.83;;;11.50;;
76631;SDS011;65526;48.578;-4.520;2023-06-14T11:23:11;25.77;;;10.90;;
76631;SDS011;65526;48.578;-4.520;2023-06-14T11:25:38;23.95;;;10.65;;
76631;SDS011;65526;48.578;-4.520;2023-06-14T11:28:04;23.42;;;10.30;;
76631;SDS011;65526;48.578;-4.520;2023-06-14T11:30:31;24.38;;;10.88;;
76631;SDS011;65526;48.578;-4.520;2023-06-14T11:32:57;23.83;;;10.63;;
76631;SDS011;65526;48.578;-4.520;2023-06-14T11:35:24;22.70;;;9.98;;
76631;SDS011;65526;48.578;-4.520;2023-06-14T11:37:55;21.25;;;10.32;;
76631;SDS011;65526;48.578;-4.520;2023-06-14T11:40:26;23.95;;;10.55;;
76631;SDS011;65526;48.578;-4.520;2023-06-14T11:43:00;20.63;;;10.10;;
76631;SDS011;65526;48.578;-4.520;2023-06-14T11:45:27;24.23;;;11.60;;
76631;SDS011;65526;48.578;-4.520;2023-06-14T11:47:55;21.95;;;10.70;;
76631;SDS011;65526;48.578;-4.520;2023-06-14T11:50:25;26.50;;;11.23;;
76631;SDS011;65526;48.578;-4.520;2023-06-14T11:52:55;24.40;;;12.27;;
76631;SDS011;65526;48.578;-4.520;2023-06-14T11:55:23;26.30;;;11.52;;
76631;SDS011;65526;48.578;-4.520;2023-06-14T11:57:50;25.80;;;12.60;;
76631;SDS011;65526;48.578;-4.520;2023-06-14T12:00:18;22.92;;;11.20;;
76631;SDS011;65526;48.578;-4.520;2023-06-14T12:02:56;25.98;;;12.52;;
76631;SDS011;65526;48.578;-4.520;2023-06-14T12:05:23;23.90;;;13.40;;
76631;SDS011;65526;48.578;-4.520;2023-06-14T12:07:57;25.42;;;12.65;;
76631;SDS011;65526;48.578;-4.520;2023-06-14T12:10:26;27.63;;;12.45;;
76631;SDS011;65526;48.578;-4.520;2023-06-14T12:12:56;26.70;;;13.73;;
76631;SDS011;65526;48.578;-4.520;2023-06-14T12:15:24;25.92;;;13.00;;
76631;SDS011;65526;48.578;-4.520;2023-06-14T12:17:54;28.35;;;13.55;;
76631;SDS011;65526;48.578;-4.520;2023-06-14T12:20:20;27.17;;;13.13;;
76631;SDS011;65526;48.578;-4.520;2023-06-14T12:22:51;24.33;;;13.60;;
76631;SDS011;65526;48.578;-4.520;2023-06-14T12:25:32;24.08;;;12.88;;
76631;SDS011;65526;48.578;-4.520;2023-06-14T12:30:32;21.48;;;11.85;;
76631;SDS011;65526;48.578;-4.520;2023-06-14T12:32:59;26.27;;;12.93;;
76631;SDS011;65526;48.578;-4.520;2023-06-14T12:35:26;21.42;;;11.82;;
76631;SDS011;65526;48.578;-4.520;2023-06-14T12:37:52;24.48;;;11.93;;
76631;SDS011;65526;48.578;-4.520;2023-06-14T12:40:19;22.75;;;12.02;;
76631;SDS011;65526;48.578;-4.520;2023-06-14T12:42:45;25.30;;;13.57;;
76631;SDS011;65526;48.578;-4.520;2023-06-14T12:45:15;23.67;;;12.27;;
76631;SDS011;65526;48.578;-4.520;2023-06-14T12:47:41;27.25;;;14.63;;
76631;SDS011;65526;48.578;-4.520;2023-06-14T12:50:08;22.83;;;12.60;;
76631;SDS011;65526;48.578;-4.520;2023-06-14T12:52:34;21.88;;;12.30;;
76631;SDS011;65526;48.578;-4.520;2023-06-14T12:55:05;21.77;;;11.93;;
76631;SDS011;65526;48.578;-4.520;2023-06-14T12:57:32;23.27;;;12.23;;
76631;SDS011;65526;48.578;-4.520;2023-06-14T12:59:59;26.40;;;11.40;;
76631;SDS011;65526;48.578;-4.520;2023-06-14T13:02:26;24.63;;;11.65;;
76631;SDS011;65526;48.578;-4.520;2023-06-14T13:04:53;22.98;;;11.93;;
76631;SDS011;65526;48.578;-4.520;2023-06-14T13:07:19;24.65;;;12.15;;
76631;SDS011;65526;48.578;-4.520;2023-06-14T13:09:46;25.42;;;12.20;;
76631;SDS011;65526;48.578;-4.520;2023-06-14T13:12:12;20.90;;;11.70;;
76631;SDS011;65526;48.578;-4.520;2023-06-14T13:14:41;30.08;;;13.27;;
76631;SDS011;65526;48.578;-4.520;2023-06-14T13:17:08;26.05;;;11.25;;
76631;SDS011;65526;48.578;-4.520;2023-06-14T13:19:35;28.35;;;12.70;;
76631;SDS011;65526;48.578;-4.520;2023-06-14T13:22:02;28.23;;;13.40;;
76631;SDS011;65526;48.578;-4.520;2023-06-14T13:24:29;25.92;;;12.32;;
76631;SDS011;65526;48.578;-4.520;2023-06-14T13:26:56;24.60;;;12.80;;
76631;SDS011;65526;48.578;-4.520;2023-06-14T13:29:23;21.15;;;12.57;;
76631;SDS011;65526;48.578;-4.520;2023-06-14T13:31:50;24.70;;;13.50;;
76631;SDS011;65526;48.578;-4.520;2023-06-14T13:34:17;25.08;;;14.00;;
76631;SDS011;65526;48.578;-4.520;2023-06-14T13:36:43;21.75;;;12.93;;
76631;SDS011;65526;48.578;-4.520;2023-06-14T13:39:10;27.60;;;13.38;;
76631;SDS011;65526;48.578;-4.520;2023-06-14T13:41:39;23.15;;;14.05;;
76631;SDS011;65526;48.578;-4.520;2023-06-14T13:44:05;25.15;;;13.90;;
76631;SDS011;65526;48.578;-4.520;2023-06-14T13:46:32;24.40;;;14.32;;
76631;SDS011;65526;48.578;-4.520;2023-06-14T13:48:58;25.02;;;13.85;;
76631;SDS011;65526;48.578;-4.520;2023-06-14T13:51:25;22.17;;;13.30;;
76631;SDS011;65526;48.578;-4.520;2023-06-14T13:53:53;24.23;;;14.27;;
76631;SDS011;65526;48.578;-4.520;2023-06-14T13:56:21;22.85;;;13.70;;
76631;SDS011;65526;48.578;-4.520;2023-06-14T13:58:50;24.55;;;14.63;;
76631;SDS011;65526;48.578;-4.520;2023-06-14T14:01:17;23.25;;;14.60;;
76631;SDS011;65526;48.578;-4.520;2023-06-14T14:03:46;26.77;;;15.07;;
76631;SDS011;65526;48.578;-4.520;2023-06-14T14:06:13;26.40;;;14.35;;
76631;SDS011;65526;48.578;-4.520;2023-06-14T14:08:39;23.05;;;13.77;;
76631;SDS011;65526;48.578;-4.520;2023-06-14T14:11:06;26.08;;;14.77;;
76631;SDS011;65526;48.578;-4.520;2023-06-14T14:13:35;26.00;;;14.43;;
76631;SDS011;65526;48.578;-4.520;2023-06-14T14:16:05;23.75;;;13.35;;
76631;SDS011;65526;48.578;-4.520;2023-06-14T14:18:32;21.65;;;13.55;;
76631;SDS011;65526;48.578;-4.520;2023-06-14T14:20:58;21.23;;;13.57;;
76631;SDS011;65526;48.578;-4.520;2023-06-14T14:23:26;20.23;;;12.52;;
76631;SDS011;65526;48.578;-4.520;2023-06-14T14:25:52;21.55;;;12.90;;
76631;SDS011;65526;48.578;-4.520;2023-06-14T14:28:19;23.05;;;12.65;;
76631;SDS011;65526;48.578;-4.520;2023-06-14T14:30:46;20.88;;;12.30;;
76631;SDS011;65526;48.578;-4.520;2023-06-14T14:33:13;22.63;;;12.85;;
76631;SDS011;65526;48.578;-4.520;2023-06-14T14:35:45;21.10;;;13.75;;
76631;SDS011;65526;48.578;-4.520;2023-06-14T14:38:12;24.27;;;13.23;;
76631;SDS011;65526;48.578;-4.520;2023-06-14T14:40:40;23.60;;;14.25;;
76631;SDS011;65526;48.578;-4.520;2023-06-14T14:43:06;27.17;;;14.85;;
76631;SDS011;65526;48.578;-4.520;2023-06-14T14:45:33;20.38;;;13.35;;
76631;SDS011;65526;48.578;-4.520;2023-06-14T14:48:00;25.08;;;14.93;;